DLH249 LIMC-EDDF
Flight info
| Callsign | DLH249 |
|---|---|
| Flight time | 0h 57m |
| Altitude | 32000 |
| Route | PEPAG DCT ABESI N851 UTAVO DCT ROLSA DCT LADOL T163 EMPAX EMPAX5A |
| Aircraft | A321/M-SDE2E3FGIJ1LORWXYZ/HB1 |
Departure
| Time | 2026-05-07 10:55 |
|---|---|
| Airport | Milan Malpensa International Airport (LIMC) |
Arrival
| Time | 2026-05-07 11:53 |
|---|---|
| Airport | Frankfurt Main Airport (EDDF) |
| Time | Latitude | Longitude | Altitude | Speed | Heading |
|---|---|---|---|---|---|
| 2026-05-07 10:42 | 45.62615 | 8.71650 | 741 ft | 4 kts | 140° |
| 2026-05-07 10:42 | 45.62623 | 8.71634 | 741 ft | 1 kts | 90° |
| 2026-05-07 10:42 | 45.62626 | 8.71664 | 741 ft | 4 kts | 77° |
| 2026-05-07 10:43 | 45.62633 | 8.71701 | 741 ft | 4 kts | 78° |
| 2026-05-07 10:43 | 45.62634 | 8.71708 | 741 ft | 0 kts | 79° |
| 2026-05-07 10:46 | 45.62636 | 8.71724 | 741 ft | 4 kts | 79° |
| 2026-05-07 10:46 | 45.62644 | 8.71794 | 741 ft | 9 kts | 89° |
| 2026-05-07 10:46 | 45.62580 | 8.71849 | 741 ft | 15 kts | 168° |
| 2026-05-07 10:47 | 45.62451 | 8.71884 | 741 ft | 21 kts | 169° |
| 2026-05-07 10:47 | 45.62303 | 8.71926 | 741 ft | 23 kts | 169° |
| 2026-05-07 10:47 | 45.62141 | 8.71970 | 741 ft | 25 kts | 169° |
| 2026-05-07 10:47 | 45.61967 | 8.72019 | 741 ft | 27 kts | 168° |
| 2026-05-07 10:48 | 45.61780 | 8.72071 | 741 ft | 28 kts | 169° |
| 2026-05-07 10:48 | 45.61588 | 8.72123 | 742 ft | 28 kts | 169° |
| 2026-05-07 10:48 | 45.61390 | 8.72179 | 742 ft | 30 kts | 169° |
| 2026-05-07 10:48 | 45.61226 | 8.72224 | 740 ft | 31 kts | 169° |
| 2026-05-07 10:50 | 45.61008 | 8.72286 | 742 ft | 32 kts | 169° |
| 2026-05-07 10:50 | 45.60809 | 8.72340 | 742 ft | 23 kts | 169° |
| 2026-05-07 10:50 | 45.60682 | 8.72377 | 742 ft | 16 kts | 158° |
| 2026-05-07 10:50 | 45.60636 | 8.72524 | 742 ft | 18 kts | 95° |
| 2026-05-07 10:51 | 45.60621 | 8.72714 | 742 ft | 20 kts | 96° |
| 2026-05-07 10:51 | 45.60606 | 8.72922 | 741 ft | 22 kts | 96° |
| 2026-05-07 10:51 | 45.60590 | 8.73151 | 742 ft | 22 kts | 92° |
| 2026-05-07 10:51 | 45.60683 | 8.73297 | 742 ft | 23 kts | 22° |
| 2026-05-07 10:52 | 45.60835 | 8.73386 | 742 ft | 24 kts | 22° |
| 2026-05-07 10:52 | 45.60990 | 8.73381 | 742 ft | 23 kts | 349° |
| 2026-05-07 10:52 | 45.61151 | 8.73336 | 742 ft | 24 kts | 349° |
| 2026-05-07 10:52 | 45.61324 | 8.73289 | 742 ft | 26 kts | 349° |
| 2026-05-07 10:53 | 45.61490 | 8.73242 | 742 ft | 21 kts | 349° |
| 2026-05-07 10:53 | 45.61603 | 8.73231 | 742 ft | 11 kts | 36° |
| 2026-05-07 10:53 | 45.61618 | 8.73298 | 742 ft | 8 kts | 76° |
| 2026-05-07 10:53 | 45.61632 | 8.73400 | 742 ft | 13 kts | 89° |
| 2026-05-07 10:54 | 45.61593 | 8.73533 | 741 ft | 16 kts | 112° |
| 2026-05-07 10:54 | 45.61590 | 8.73657 | 740 ft | 12 kts | 82° |
| 2026-05-07 10:54 | 45.61646 | 8.73727 | 739 ft | 10 kts | 353° |
| 2026-05-07 10:54 | 45.61796 | 8.73687 | 740 ft | 54 kts | 349° |
| 2026-05-07 10:55 | 45.62453 | 8.73505 | 742 ft | 135 kts | 349° |
| 2026-05-07 10:55 | 45.63542 | 8.73205 | 1124 ft | 165 kts | 349° |
| 2026-05-07 10:55 | 45.64690 | 8.73076 | 2032 ft | 168 kts | 1° |
| 2026-05-07 10:55 | 45.65916 | 8.73103 | 2620 ft | 184 kts | 1° |
| 2026-05-07 10:56 | 45.67249 | 8.73146 | 3201 ft | 200 kts | 3° |
| 2026-05-07 10:56 | 45.68554 | 8.73847 | 3848 ft | 207 kts | 40° |
| 2026-05-07 10:56 | 45.69314 | 8.75602 | 4598 ft | 212 kts | 76° |
| 2026-05-07 10:56 | 45.69555 | 8.77666 | 5376 ft | 211 kts | 80° |
| 2026-05-07 10:57 | 45.69795 | 8.79761 | 6097 ft | 217 kts | 81° |
| 2026-05-07 10:57 | 45.70049 | 8.81898 | 6835 ft | 219 kts | 79° |
| 2026-05-07 10:57 | 45.70340 | 8.84117 | 7294 ft | 239 kts | 78° |
| 2026-05-07 10:57 | 45.70757 | 8.86576 | 7667 ft | 267 kts | 66° |
| 2026-05-07 10:58 | 45.71932 | 8.88678 | 8267 ft | 279 kts | 34° |
| 2026-05-07 10:58 | 45.73650 | 8.89995 | 9079 ft | 283 kts | 25° |
| 2026-05-07 10:58 | 45.75444 | 8.91226 | 9954 ft | 288 kts | 25° |
| 2026-05-07 10:58 | 45.77297 | 8.92488 | 10445 ft | 305 kts | 24° |
| 2026-05-07 10:59 | 45.79278 | 8.93838 | 10782 ft | 323 kts | 24° |
| 2026-05-07 10:59 | 45.81345 | 8.95243 | 11465 ft | 332 kts | 25° |
| 2026-05-07 10:59 | 45.83408 | 8.96664 | 12229 ft | 335 kts | 25° |
| 2026-05-07 10:59 | 45.85521 | 8.98139 | 12991 ft | 340 kts | 25° |
| 2026-05-07 11:00 | 45.87663 | 8.99642 | 13791 ft | 345 kts | 25° |
| 2026-05-07 11:00 | 45.89837 | 9.01173 | 14499 ft | 350 kts | 25° |
| 2026-05-07 11:00 | 45.92039 | 9.02713 | 15209 ft | 354 kts | 24° |
| 2026-05-07 11:00 | 45.94270 | 9.04263 | 15927 ft | 358 kts | 24° |
| 2026-05-07 11:01 | 45.96565 | 9.05693 | 16618 ft | 361 kts | 16° |
| 2026-05-07 11:01 | 45.99010 | 9.06503 | 17309 ft | 361 kts | 5° |
| 2026-05-07 11:01 | 46.01521 | 9.06617 | 17992 ft | 361 kts | 353° |
| 2026-05-07 11:01 | 46.04030 | 9.06222 | 18638 ft | 364 kts | 351° |
| 2026-05-07 11:02 | 46.06551 | 9.05802 | 19285 ft | 367 kts | 351° |
| 2026-05-07 11:02 | 46.09098 | 9.05389 | 19934 ft | 370 kts | 351° |
| 2026-05-07 11:02 | 46.11665 | 9.04975 | 20591 ft | 373 kts | 351° |
| 2026-05-07 11:02 | 46.14248 | 9.04557 | 21256 ft | 375 kts | 352° |
| 2026-05-07 11:03 | 46.16854 | 9.04136 | 21880 ft | 378 kts | 352° |
| 2026-05-07 11:03 | 46.19482 | 9.03746 | 22489 ft | 381 kts | 353° |
| 2026-05-07 11:03 | 46.22135 | 9.03389 | 23111 ft | 384 kts | 353° |
| 2026-05-07 11:03 | 46.24809 | 9.03048 | 23649 ft | 387 kts | 354° |
| 2026-05-07 11:04 | 46.27505 | 9.02709 | 24124 ft | 390 kts | 353° |
| 2026-05-07 11:04 | 46.30219 | 9.02361 | 24602 ft | 393 kts | 353° |
| 2026-05-07 11:04 | 46.32953 | 9.02006 | 25072 ft | 396 kts | 353° |
| 2026-05-07 11:04 | 46.35713 | 9.01644 | 25538 ft | 400 kts | 353° |
| 2026-05-07 11:05 | 46.38493 | 9.01271 | 26004 ft | 403 kts | 353° |
| 2026-05-07 11:05 | 46.41294 | 9.00889 | 26479 ft | 406 kts | 353° |
| 2026-05-07 11:05 | 46.44114 | 9.00502 | 26943 ft | 408 kts | 353° |
| 2026-05-07 11:05 | 46.46955 | 9.00118 | 27379 ft | 411 kts | 353° |
| 2026-05-07 11:06 | 46.49815 | 8.99735 | 27821 ft | 415 kts | 353° |
| 2026-05-07 11:06 | 46.51725 | 8.99480 | 28121 ft | 417 kts | 353° |
| 2026-05-07 11:06 | 46.54624 | 8.99089 | 28572 ft | 420 kts | 353° |
| 2026-05-07 11:06 | 46.57542 | 8.98694 | 29019 ft | 423 kts | 353° |
| 2026-05-07 11:07 | 46.60480 | 8.98300 | 29445 ft | 426 kts | 353° |
| 2026-05-07 11:07 | 46.63444 | 8.97903 | 29906 ft | 428 kts | 353° |
| 2026-05-07 11:07 | 46.66407 | 8.97505 | 30363 ft | 429 kts | 353° |
| 2026-05-07 11:07 | 46.69393 | 8.97102 | 30724 ft | 432 kts | 353° |
| 2026-05-07 11:08 | 46.72393 | 8.96691 | 31040 ft | 435 kts | 353° |
| 2026-05-07 11:08 | 46.75418 | 8.96273 | 31365 ft | 437 kts | 353° |
| 2026-05-07 11:08 | 46.78447 | 8.95855 | 31711 ft | 439 kts | 352° |
| 2026-05-07 11:08 | 46.81497 | 8.95435 | 31969 ft | 441 kts | 353° |
| 2026-05-07 11:09 | 46.84524 | 8.95023 | 32034 ft | 430 kts | 353° |
| 2026-05-07 11:09 | 46.87449 | 8.94629 | 32026 ft | 413 kts | 353° |
| 2026-05-07 11:09 | 46.93065 | 8.93864 | 32028 ft | 403 kts | 353° |
| 2026-05-07 11:10 | 46.98633 | 8.93100 | 32028 ft | 401 kts | 353° |
| 2026-05-07 11:10 | 47.04188 | 8.92341 | 32041 ft | 401 kts | 352° |
| 2026-05-07 11:11 | 47.09741 | 8.91575 | 32034 ft | 400 kts | 353° |
| 2026-05-07 11:11 | 47.15292 | 8.90810 | 32046 ft | 401 kts | 352° |
| 2026-05-07 11:12 | 47.20841 | 8.90045 | 32047 ft | 400 kts | 353° |
| 2026-05-07 11:12 | 47.25449 | 8.89404 | 32061 ft | 400 kts | 353° |
| 2026-05-07 11:13 | 47.27142 | 8.89169 | 32060 ft | 400 kts | 353° |
| 2026-05-07 11:13 | 47.32714 | 8.89178 | 32056 ft | 402 kts | 1° |
| 2026-05-07 11:14 | 47.38275 | 8.89583 | 32056 ft | 402 kts | 1° |
| 2026-05-07 11:14 | 47.43857 | 8.89990 | 32055 ft | 402 kts | 1° |
| 2026-05-07 11:15 | 47.49447 | 8.90402 | 32062 ft | 403 kts | 1° |
| 2026-05-07 11:15 | 47.54784 | 8.90778 | 32055 ft | 402 kts | 1° |
| 2026-05-07 11:16 | 47.60216 | 8.91171 | 32050 ft | 402 kts | 1° |
| 2026-05-07 11:16 | 47.65832 | 8.91581 | 32040 ft | 401 kts | 1° |
| 2026-05-07 11:17 | 47.71309 | 8.91991 | 32041 ft | 402 kts | 1° |
| 2026-05-07 11:17 | 47.76888 | 8.92397 | 32035 ft | 401 kts | 1° |
| 2026-05-07 11:18 | 47.82466 | 8.92806 | 32038 ft | 402 kts | 1° |
| 2026-05-07 11:18 | 47.87107 | 8.93146 | 32038 ft | 401 kts | 1° |
| 2026-05-07 11:19 | 47.87425 | 8.93168 | 32035 ft | 401 kts | 1° |
| 2026-05-07 11:19 | 47.90469 | 8.93377 | 32049 ft | 401 kts | 1° |
| 2026-05-07 11:20 | 47.96051 | 8.93778 | 32041 ft | 402 kts | 1° |
| 2026-05-07 11:20 | 48.01635 | 8.94206 | 32027 ft | 402 kts | 1° |
| 2026-05-07 11:21 | 48.07213 | 8.94626 | 32032 ft | 402 kts | 1° |
| 2026-05-07 11:21 | 48.12801 | 8.95040 | 31908 ft | 402 kts | 1° |
| 2026-05-07 11:22 | 48.15596 | 8.95245 | 31637 ft | 401 kts | 1° |
| 2026-05-07 11:22 | 48.18384 | 8.95489 | 31382 ft | 401 kts | 2° |
| 2026-05-07 11:22 | 48.21157 | 8.95847 | 31125 ft | 399 kts | 4° |
| 2026-05-07 11:22 | 48.23908 | 8.96283 | 30874 ft | 397 kts | 5° |
| 2026-05-07 11:23 | 48.26644 | 8.96750 | 30622 ft | 394 kts | 5° |
| 2026-05-07 11:23 | 48.29354 | 8.97210 | 30373 ft | 391 kts | 5° |
| 2026-05-07 11:23 | 48.32050 | 8.97654 | 30135 ft | 388 kts | 5° |
| 2026-05-07 11:23 | 48.34723 | 8.98077 | 29844 ft | 385 kts | 5° |
| 2026-05-07 11:24 | 48.37341 | 8.98476 | 29548 ft | 382 kts | 4° |
| 2026-05-07 11:24 | 48.39983 | 8.98872 | 29271 ft | 381 kts | 5° |
| 2026-05-07 11:24 | 48.42619 | 8.99271 | 28986 ft | 380 kts | 4° |
| 2026-05-07 11:24 | 48.45231 | 8.99667 | 29009 ft | 376 kts | 4° |
| 2026-05-07 11:25 | 48.50478 | 9.00460 | 28617 ft | 377 kts | 4° |
| 2026-05-07 11:25 | 48.53085 | 9.00850 | 28325 ft | 375 kts | 4° |
| 2026-05-07 11:25 | 48.55681 | 9.01244 | 28045 ft | 374 kts | 4° |
| 2026-05-07 11:26 | 48.58266 | 9.01640 | 27776 ft | 373 kts | 4° |
| 2026-05-07 11:26 | 48.60840 | 9.02040 | 27507 ft | 372 kts | 4° |
| 2026-05-07 11:26 | 48.63388 | 9.02446 | 27267 ft | 365 kts | 5° |
| 2026-05-07 11:26 | 48.65885 | 9.02954 | 26915 ft | 359 kts | 7° |
| 2026-05-07 11:27 | 48.68330 | 9.03539 | 26544 ft | 353 kts | 8° |
| 2026-05-07 11:27 | 48.70731 | 9.04147 | 26178 ft | 346 kts | 7° |
| 2026-05-07 11:27 | 48.73081 | 9.04741 | 25804 ft | 340 kts | 7° |
| 2026-05-07 11:27 | 48.75401 | 9.05323 | 25428 ft | 337 kts | 7° |
| 2026-05-07 11:28 | 48.77703 | 9.05890 | 25062 ft | 335 kts | 6° |
| 2026-05-07 11:28 | 48.79980 | 9.06442 | 24686 ft | 342 kts | 6° |
| 2026-05-07 11:28 | 48.82401 | 9.07022 | 24277 ft | 359 kts | 6° |
| 2026-05-07 11:28 | 48.84881 | 9.07620 | 23856 ft | 362 kts | 6° |
| 2026-05-07 11:29 | 48.87246 | 9.08191 | 23418 ft | 361 kts | 6° |
| 2026-05-07 11:29 | 48.89719 | 9.08739 | 22968 ft | 358 kts | 4° |
| 2026-05-07 11:29 | 48.92192 | 9.09150 | 22537 ft | 356 kts | 2° |
| 2026-05-07 11:29 | 48.94655 | 9.09482 | 22116 ft | 354 kts | 2° |
| 2026-05-07 11:30 | 48.97018 | 9.09773 | 21691 ft | 352 kts | 1° |
| 2026-05-07 11:30 | 48.99456 | 9.10073 | 21254 ft | 350 kts | 2° |
| 2026-05-07 11:30 | 49.01875 | 9.10386 | 20827 ft | 348 kts | 2° |
| 2026-05-07 11:30 | 49.04280 | 9.10712 | 20398 ft | 346 kts | 2° |
| 2026-05-07 11:31 | 49.06641 | 9.11042 | 19977 ft | 344 kts | 2° |
| 2026-05-07 11:31 | 49.09022 | 9.11380 | 19549 ft | 343 kts | 2° |
| 2026-05-07 11:31 | 49.11388 | 9.11718 | 19123 ft | 341 kts | 2° |
| 2026-05-07 11:31 | 49.13745 | 9.12059 | 18700 ft | 340 kts | 2° |
| 2026-05-07 11:32 | 49.18418 | 9.12730 | 17820 ft | 335 kts | 2° |
| 2026-05-07 11:32 | 49.20732 | 9.13066 | 17396 ft | 333 kts | 3° |
| 2026-05-07 11:32 | 49.23029 | 9.13397 | 16981 ft | 331 kts | 3° |
| 2026-05-07 11:33 | 49.25313 | 9.13726 | 16568 ft | 329 kts | 3° |
| 2026-05-07 11:33 | 49.27586 | 9.14054 | 16153 ft | 327 kts | 4° |
| 2026-05-07 11:33 | 49.29824 | 9.14678 | 15721 ft | 327 kts | 11° |
| 2026-05-07 11:33 | 49.30569 | 9.14944 | 15566 ft | 326 kts | 11° |
| 2026-05-07 11:35 | 49.31578 | 9.15274 | 15677 ft | 281 kts | 4° |
| 2026-05-07 11:35 | 49.33264 | 9.15489 | 16998 ft | 256 kts | 2° |
| 2026-05-07 11:35 | 49.35261 | 9.16010 | 16166 ft | 326 kts | 11° |
| 2026-05-07 11:35 | 49.37675 | 9.16942 | 15137 ft | 389 kts | 13° |
| 2026-05-07 11:36 | 49.40451 | 9.18119 | 13999 ft | 425 kts | 14° |
| 2026-05-07 11:36 | 49.43246 | 9.19303 | 13453 ft | 409 kts | 13° |
| 2026-05-07 11:36 | 49.45928 | 9.20387 | 13292 ft | 385 kts | 12° |
| 2026-05-07 11:36 | 49.48451 | 9.21344 | 13152 ft | 363 kts | 12° |
| 2026-05-07 11:37 | 49.50836 | 9.22204 | 13019 ft | 342 kts | 11° |
| 2026-05-07 11:37 | 49.53099 | 9.22997 | 12889 ft | 325 kts | 11° |
| 2026-05-07 11:37 | 49.55257 | 9.23746 | 12625 ft | 313 kts | 11° |
| 2026-05-07 11:37 | 49.57365 | 9.24478 | 12183 ft | 309 kts | 10° |
| 2026-05-07 11:38 | 49.59453 | 9.25210 | 11701 ft | 307 kts | 11° |
| 2026-05-07 11:38 | 49.61527 | 9.25948 | 11276 ft | 304 kts | 10° |
| 2026-05-07 11:38 | 49.63573 | 9.26681 | 10862 ft | 301 kts | 10° |
| 2026-05-07 11:38 | 49.65601 | 9.27409 | 10408 ft | 297 kts | 10° |
| 2026-05-07 11:39 | 49.67605 | 9.28134 | 10178 ft | 296 kts | 10° |
| 2026-05-07 11:39 | 49.69617 | 9.28854 | 10054 ft | 297 kts | 10° |
| 2026-05-07 11:39 | 49.71626 | 9.29570 | 10024 ft | 296 kts | 9° |
| 2026-05-07 11:39 | 49.73608 | 9.30278 | 9874 ft | 288 kts | 10° |
| 2026-05-07 11:40 | 49.75540 | 9.30971 | 9519 ft | 283 kts | 10° |
| 2026-05-07 11:40 | 49.77448 | 9.31662 | 9214 ft | 282 kts | 10° |
| 2026-05-07 11:40 | 49.79354 | 9.32354 | 8948 ft | 280 kts | 10° |
| 2026-05-07 11:40 | 49.81241 | 9.33036 | 8684 ft | 279 kts | 10° |
| 2026-05-07 11:41 | 49.83130 | 9.33715 | 8431 ft | 276 kts | 10° |
| 2026-05-07 11:41 | 49.84993 | 9.34005 | 8179 ft | 271 kts | 355° |
| 2026-05-07 11:41 | 49.86849 | 9.33490 | 7910 ft | 267 kts | 341° |
| 2026-05-07 11:41 | 49.87562 | 9.33054 | 7810 ft | 267 kts | 333° |
| 2026-05-07 11:42 | 49.89118 | 9.31533 | 7549 ft | 264 kts | 322° |
| 2026-05-07 11:42 | 49.90589 | 9.29836 | 7291 ft | 263 kts | 323° |
| 2026-05-07 11:42 | 49.92079 | 9.28139 | 7051 ft | 262 kts | 323° |
| 2026-05-07 11:42 | 49.93527 | 9.26502 | 6802 ft | 261 kts | 323° |
| 2026-05-07 11:43 | 49.94993 | 9.24849 | 6561 ft | 260 kts | 323° |
| 2026-05-07 11:43 | 49.96453 | 9.23198 | 6302 ft | 259 kts | 323° |
| 2026-05-07 11:43 | 49.97904 | 9.21553 | 6045 ft | 258 kts | 323° |
| 2026-05-07 11:43 | 49.99350 | 9.19909 | 5780 ft | 257 kts | 323° |
| 2026-05-07 11:44 | 50.00791 | 9.18266 | 5521 ft | 257 kts | 323° |
| 2026-05-07 11:44 | 50.02230 | 9.16620 | 5269 ft | 256 kts | 323° |
| 2026-05-07 11:44 | 50.03662 | 9.14978 | 5004 ft | 255 kts | 323° |
| 2026-05-07 11:44 | 50.05094 | 9.13335 | 4740 ft | 256 kts | 323° |
| 2026-05-07 11:45 | 50.06523 | 9.11687 | 4488 ft | 255 kts | 323° |
| 2026-05-07 11:45 | 50.07941 | 9.10045 | 4236 ft | 254 kts | 324° |
| 2026-05-07 11:45 | 50.09359 | 9.08420 | 4043 ft | 253 kts | 324° |
| 2026-05-07 11:45 | 50.10776 | 9.06805 | 3997 ft | 252 kts | 324° |
| 2026-05-07 11:46 | 50.12161 | 9.05132 | 4002 ft | 253 kts | 317° |
| 2026-05-07 11:46 | 50.13296 | 9.03059 | 4005 ft | 247 kts | 298° |
| 2026-05-07 11:46 | 50.13689 | 9.00564 | 4001 ft | 232 kts | 270° |
| 2026-05-07 11:46 | 50.13339 | 8.98207 | 4001 ft | 217 kts | 252° |
| 2026-05-07 11:47 | 50.12830 | 8.96051 | 4005 ft | 208 kts | 252° |
| 2026-05-07 11:47 | 50.12334 | 8.93926 | 4007 ft | 209 kts | 252° |
| 2026-05-07 11:47 | 50.11833 | 8.91808 | 4027 ft | 210 kts | 252° |
| 2026-05-07 11:47 | 50.11335 | 8.89671 | 4020 ft | 210 kts | 252° |
| 2026-05-07 11:48 | 50.10839 | 8.87554 | 4022 ft | 204 kts | 252° |
| 2026-05-07 11:48 | 50.10364 | 8.85534 | 3948 ft | 196 kts | 253° |
| 2026-05-07 11:48 | 50.09901 | 8.83561 | 3755 ft | 193 kts | 252° |
| 2026-05-07 11:48 | 50.09440 | 8.81602 | 3517 ft | 192 kts | 252° |
| 2026-05-07 11:49 | 50.08980 | 8.79653 | 3240 ft | 191 kts | 252° |
| 2026-05-07 11:49 | 50.08526 | 8.77722 | 2974 ft | 188 kts | 252° |
| 2026-05-07 11:49 | 50.08084 | 8.75847 | 2734 ft | 181 kts | 251° |
| 2026-05-07 11:49 | 50.07655 | 8.74047 | 2479 ft | 174 kts | 252° |
| 2026-05-07 11:50 | 50.07315 | 8.72306 | 2268 ft | 167 kts | 260° |
| 2026-05-07 11:50 | 50.07122 | 8.70562 | 2101 ft | 157 kts | 265° |
| 2026-05-07 11:50 | 50.06905 | 8.68938 | 1892 ft | 152 kts | 256° |
| 2026-05-07 11:50 | 50.06541 | 8.67420 | 1689 ft | 147 kts | 251° |
| 2026-05-07 11:51 | 50.06192 | 8.65955 | 1461 ft | 142 kts | 255° |
| 2026-05-07 11:51 | 50.05884 | 8.64523 | 1229 ft | 140 kts | 252° |
| 2026-05-07 11:51 | 50.05534 | 8.63129 | 1039 ft | 136 kts | 251° |
| 2026-05-07 11:51 | 50.05208 | 8.61763 | 841 ft | 133 kts | 254° |
| 2026-05-07 11:52 | 50.04926 | 8.60410 | 666 ft | 130 kts | 252° |
| 2026-05-07 11:52 | 50.04606 | 8.59096 | 476 ft | 130 kts | 251° |
| 2026-05-07 11:52 | 50.04294 | 8.57795 | 370 ft | 121 kts | 250° |
| 2026-05-07 11:52 | 50.04057 | 8.56794 | 363 ft | 61 kts | 249° |
| 2026-05-07 11:53 | 50.03990 | 8.56426 | 353 ft | 26 kts | 274° |
| 2026-05-07 11:53 | 50.04009 | 8.56216 | 353 ft | 14 kts | 279° |
| 2026-05-07 11:53 | 50.04047 | 8.56134 | 355 ft | 15 kts | 338° |
| 2026-05-07 11:53 | 50.04111 | 8.56217 | 356 ft | 10 kts | 69° |
| 2026-05-07 11:54 | 50.04140 | 8.56332 | 362 ft | 13 kts | 69° |
| 2026-05-07 11:54 | 50.04173 | 8.56466 | 357 ft | 14 kts | 70° |
| 2026-05-07 11:54 | 50.04208 | 8.56618 | 362 ft | 15 kts | 70° |
| 2026-05-07 11:54 | 50.04245 | 8.56769 | 359 ft | 13 kts | 62° |
| 2026-05-07 11:55 | 50.04318 | 8.56821 | 362 ft | 9 kts | 13° |
| 2026-05-07 11:55 | 50.04393 | 8.56842 | 363 ft | 13 kts | 9° |
| 2026-05-07 11:55 | 50.04459 | 8.56882 | 360 ft | 9 kts | 62° |
| 2026-05-07 11:55 | 50.04426 | 8.56944 | 364 ft | 9 kts | 159° |
| 2026-05-07 11:56 | 50.04381 | 8.56970 | 360 ft | 2 kts | 160° |
| 2026-05-07 11:56 | 50.04380 | 8.56970 | 360 ft | 0 kts | 160° |